Time;durP1;ratioP1;P1;durP2;ratioP2;P2;SDS_P1;SDS_P2;PMS_P1;PMS_P2;Temp;Humidity;BMP_temperature;BMP_pressure;BME280_temperature;BME280_humidity;BME280_pressure;Samples;Min_cycle;Max_cycle;Signal;HPM_P1;HPM_P2
2023/10/17 00:02:00;;;;;;;;;6.33;4.33;;;;;7.87;100.00;100960.34;5092025;27;45803;-75
2023/10/17 00:04:27;;;;;;;;;8.33;7.00;;;;;7.86;100.00;100964.13;5087183;27;46132;-74
2023/10/17 00:07:02;;;;;;;;;5.67;4.00;;;;;7.69;100.00;100944.28;5083128;27;45861;-75
2023/10/17 00:09:36;;;;;;;;;6.67;5.00;;;;;7.83;100.00;100972.69;5089311;27;45474;-76
2023/10/17 00:17:18;;;;;;;;;4.00;4.00;;;;;7.75;100.00;100978.22;5081186;27;45384;-76
2023/10/17 00:19:45;;;;;;;;;5.00;2.00;;;;;7.73;100.00;100972.09;5087251;27;45552;-74
2023/10/17 00:22:12;;;;;;;;;4.00;4.00;;;;;7.66;100.00;100950.13;5089684;27;45802;-73
2023/10/17 00:24:37;;;;;;;;;5.67;4.67;;;;;7.73;100.00;100956.56;5090675;27;45960;-75
2023/10/17 00:27:03;;;;;;;;;5.00;5.00;;;;;7.69;100.00;100951.66;5091755;27;45596;-74
2023/10/17 00:29:29;;;;;;;;;7.00;5.00;;;;;7.70;100.00;100953.34;5070900;28;46018;-75
2023/10/17 00:31:55;;;;;;;;;3.00;3.00;;;;;7.65;100.00;100948.44;5086534;27;45737;-74
2023/10/17 00:34:21;;;;;;;;;4.00;4.00;;;;;7.64;100.00;100946.75;5085145;27;45705;-73
2023/10/17 00:36:48;;;;;;;;;4.00;2.00;;;;;7.57;100.00;100935.72;5090793;27;45645;-73
2023/10/17 00:39:32;;;;;;;;;4.33;3.00;;;;;7.53;100.00;100920.75;5092343;27;45822;-74
2023/10/17 00:44:36;;;;;;;;;3.00;3.00;;;;;7.46;100.00;100925.25;5089497;27;45876;-74
2023/10/17 00:47:02;;;;;;;;;3.00;3.00;;;;;7.40;100.00;100921.38;5085326;27;45931;-73
2023/10/17 00:49:29;;;;;;;;;3.33;3.33;;;;;7.41;100.00;100930.41;5083905;27;45651;-73
2023/10/17 00:51:59;;;;;;;;;4.00;2.00;;;;;7.36;100.00;100911.00;5091690;27;45773;-73
2023/10/17 00:54:26;;;;;;;;;5.00;5.00;;;;;7.31;100.00;100899.81;5093678;27;45584;-73
2023/10/17 00:56:55;;;;;;;;;3.67;3.67;;;;;7.29;100.00;100888.22;5090691;27;45800;-74
2023/10/17 00:59:29;;;;;;;;;4.33;2.00;;;;;7.25;100.00;100894.03;5089407;27;45643;-74
2023/10/17 01:01:56;;;;;;;;;5.00;4.33;;;;;7.14;100.00;100886.31;5084228;27;45808;-73
2023/10/17 01:04:23;;;;;;;;;3.00;3.00;;;;;7.21;100.00;100909.06;5088300;27;45351;-74
2023/10/17 01:06:54;;;;;;;;;3.00;2.00;;;;;7.21;100.00;100903.63;5087022;27;46326;-73
2023/10/17 01:09:28;;;;;;;;;4.67;4.67;;;;;7.19;100.00;100900.22;5088954;27;45642;-73
2023/10/17 01:11:57;;;;;;;;;5.00;4.00;;;;;7.18;100.00;100895.78;5090517;27;45690;-74
2023/10/17 01:14:23;;;;;;;;;4.00;4.00;;;;;7.18;100.00;100893.06;5078888;27;45551;-72
2023/10/17 01:16:53;;;;;;;;;4.33;4.33;;;;;7.20;100.00;100891.03;5078314;27;45943;-73
2023/10/17 01:19:19;;;;;;;;;7.33;4.00;;;;;7.19;100.00;100893.94;5079062;27;45752;-73
2023/10/17 01:21:45;;;;;;;;;3.00;3.00;;;;;7.18;100.00;100895.78;5088699;27;45972;-75
2023/10/17 01:24:11;;;;;;;;;3.33;3.33;;;;;7.19;100.00;100896.66;5092549;27;45950;-73
2023/10/17 01:26:37;;;;;;;;;6.33;4.33;;;;;7.16;100.00;100883.41;5087093;27;45391;-74
2023/10/17 01:29:04;;;;;;;;;6.00;5.00;;;;;7.16;100.00;100891.56;5077030;27;45719;-74
2023/10/17 01:31:33;;;;;;;;;2.33;2.33;;;;;7.16;100.00;100889.69;5073889;27;45848;-74
2023/10/17 01:33:59;;;;;;;;;3.00;3.00;;;;;7.15;100.00;100893.44;5085460;27;45895;-72
2023/10/17 01:36:25;;;;;;;;;7.67;5.67;;;;;7.01;100.00;100866.97;5087451;27;45655;-72
2023/10/17 01:38:52;;;;;;;;;4.33;4.33;;;;;7.20;100.00;100896.47;5088431;27;45445;-74
2023/10/17 01:41:20;;;;;;;;;4.33;4.33;;;;;7.19;100.00;100897.50;5088264;27;45519;-73
2023/10/17 01:43:50;;;;;;;;;6.33;4.67;;;;;7.17;100.00;100885.06;5082018;27;45782;-72
2023/10/17 01:46:21;;;;;;;;;6.00;5.00;;;;;7.16;100.00;100888.84;5088628;27;46588;-73
2023/10/17 01:48:48;;;;;;;;;5.67;5.00;;;;;7.16;100.00;100891.56;5089617;27;45804;-73
2023/10/17 01:51:15;;;;;;;;;4.00;4.00;;;;;7.12;100.00;100891.06;5081972;27;45530;-73
2023/10/17 01:53:42;;;;;;;;;6.33;5.33;;;;;7.12;100.00;100891.06;5086668;27;45459;-73
2023/10/17 01:56:16;;;;;;;;;5.67;5.00;;;;;7.14;100.00;100901.81;5081720;27;45798;-73
2023/10/17 01:58:48;;;;;;;;;6.00;5.67;;;;;7.10;100.00;100905.94;5086667;27;45614;-73
2023/10/17 02:01:18;;;;;;;;;7.67;6.33;;;;;7.07;100.00;100915.34;5083995;27;45557;-73
2023/10/17 02:03:46;;;;;;;;;6.00;5.00;;;;;7.06;100.00;100905.44;5081909;27;45563;-72
2023/10/17 02:06:16;;;;;;;;;6.00;5.00;;;;;6.94;100.00;100890.53;5077250;27;47238;-73
2023/10/17 02:08:44;;;;;;;;;4.00;4.00;;;;;7.00;100.00;100898.84;5088145;27;45961;-73
2023/10/17 02:11:23;;;;;;;;;7.00;4.33;;;;;6.97;100.00;100896.47;5091126;27;45825;-74
2023/10/17 02:13:50;;;;;;;;;5.00;3.67;;;;;6.95;100.00;100903.16;5085851;27;46185;-74
2023/10/17 02:16:17;;;;;;;;;6.33;5.00;;;;;6.94;100.00;100901.44;5085652;27;45655;-74
2023/10/17 02:18:42;;;;;;;;;7.00;7.00;;;;;6.87;100.00;100896.72;5081241;27;45652;-73
2023/10/17 02:21:08;;;;;;;;;7.00;5.67;;;;;6.86;100.00;100897.75;5076601;27;45341;-73
2023/10/17 02:23:49;;;;;;;;;7.00;5.67;;;;;6.80;100.00;100894.91;5084462;27;45387;-73
2023/10/17 02:26:22;;;;;;;;;7.00;5.33;;;;;6.66;100.00;100871.97;5093992;27;46206;-72
2023/10/17 02:29:11;;;;;;;;;4.00;4.00;;;;;6.74;100.00;100895.59;5086000;27;45386;-74
2023/10/17 02:31:40;;;;;;;;;3.00;3.00;;;;;6.69;100.00;100890.69;5093604;27;45562;-72
2023/10/17 02:34:09;;;;;;;;;5.00;3.67;;;;;6.66;100.00;100901.97;5090260;27;45908;-73
2023/10/17 02:36:35;;;;;;;;;5.00;5.00;;;;;6.55;100.00;100889.59;5091319;27;46075;-74
2023/10/17 02:39:00;;;;;;;;;6.00;4.00;;;;;6.63;100.00;100888.69;5094482;27;45737;-73
2023/10/17 02:41:26;;;;;;;;;8.00;6.00;;;;;6.60;100.00;100895.38;5094212;27;45750;-74
2023/10/17 02:43:54;;;;;;;;;7.00;6.00;;;;;6.54;100.00;100896.94;5094719;27;45954;-74
2023/10/17 02:46:27;;;;;;;;;5.00;4.00;;;;;6.53;100.00;100889.78;5094322;27;46049;-74
2023/10/17 02:48:56;;;;;;;;;5.00;5.00;;;;;6.49;100.00;100893.88;5088439;27;45330;-75
2023/10/17 02:53:52;;;;;;;;;6.00;6.00;;;;;6.48;100.00;100897.66;5091784;27;45804;-74
2023/10/17 02:56:20;;;;;;;;;8.00;6.67;;;;;6.35;100.00;100872.84;5082734;27;46477;-74
2023/10/17 02:58:51;;;;;;;;;7.33;6.67;;;;;6.42;100.00;100898.38;5086826;27;45751;-73
2023/10/17 03:01:22;;;;;;;;;7.67;7.67;;;;;6.39;100.00;100886.94;5084622;27;45645;-75
2023/10/17 03:03:50;;;;;;;;;7.67;6.00;;;;;6.40;100.00;100889.50;5091491;27;45767;-73
2023/10/17 03:06:17;;;;;;;;;15.00;14.00;;;;;6.39;100.00;100887.78;5083497;27;46572;-73
2023/10/17 03:08:49;;;;;;;;;13.00;11.00;;;;;6.37;100.00;100884.41;5086908;27;46357;-73
2023/10/17 03:11:17;;;;;;;;;5.00;4.00;;;;;6.34;100.00;100879.31;5090070;27;45625;-74
2023/10/17 03:13:43;;;;;;;;;5.33;5.00;;;;;6.35;100.00;100884.59;5092337;27;46089;-74
2023/10/17 03:16:25;;;;;;;;;12.00;7.67;;;;;6.31;100.00;100876.94;5092422;27;46414;-73
2023/10/17 03:18:50;;;;;;;;;7.00;7.00;;;;;6.28;100.00;100866.41;5079993;27;45549;-72
2023/10/17 03:21:19;;;;;;;;;18.00;15.25;;;;;6.31;100.00;100868.78;5086871;27;45526;-73
2023/10/17 03:23:49;;;;;;;;;6.33;6.33;;;;;6.22;100.00;100861.69;5087191;27;45865;-72
2023/10/17 03:26:17;;;;;;;;;6.67;6.00;;;;;6.27;100.00;100870.16;5092361;27;46011;-74
2023/10/17 03:28:45;;;;;;;;;7.00;7.00;;;;;6.26;100.00;100876.66;5089283;27;45429;-74
2023/10/17 03:31:11;;;;;;;;;12.33;6.67;;;;;6.22;100.00;100867.97;5084200;27;45454;-73
2023/10/17 03:33:40;;;;;;;;;6.00;6.00;;;;;6.25;100.00;100873.06;5082557;27;45882;-75
2023/10/17 03:36:06;;;;;;;;;5.33;5.00;;;;;6.26;100.00;100872.03;5085786;27;46163;-74
2023/10/17 03:38:33;;;;;;;;;4.00;4.00;;;;;6.22;100.00;100864.41;5081146;27;45462;-75
2023/10/17 03:41:15;;;;;;;;;8.33;7.33;;;;;6.18;100.00;100859.31;5092339;27;45987;-73
2023/10/17 03:43:49;;;;;;;;;5.00;5.00;;;;;6.21;100.00;100863.53;5089966;27;45699;-75
2023/10/17 03:46:15;;;;;;;;;6.33;4.33;;;;;6.22;100.00;100861.69;5088559;27;45808;-74
2023/10/17 03:48:49;;;;;;;;;8.33;6.67;;;;;6.22;100.00;100869.84;5081383;27;45508;-75
2023/10/17 03:51:21;;;;;;;;;7.67;5.33;;;;;6.22;100.00;100865.25;5092476;27;45895;-75
2023/10/17 03:53:47;;;;;;;;;11.00;9.33;;;;;6.24;100.00;100874.06;5093290;27;45626;-73
2023/10/17 03:56:19;;;;;;;;;3.00;1.67;;;;;6.21;100.00;100870.88;5089701;27;47533;-73
2023/10/17 03:59:18;;;;;;;;;8.00;7.33;;;;;6.18;100.00;100864.75;5082474;27;45931;-74
2023/10/17 04:01:52;;;;;;;;;9.33;6.00;;;;;6.16;100.00;100857.78;5081155;27;45656;-74
2023/10/17 04:04:30;;;;;;;;;4.00;4.00;;;;;6.10;100.00;100853.88;5083012;27;45511;-74
2023/10/17 04:06:57;;;;;;;;;9.33;6.33;;;;;6.12;100.00;100859.16;5092195;27;46543;-74
2023/10/17 04:11:53;;;;;;;;;6.67;5.33;;;;;6.10;100.00;100866.66;5092293;27;45289;-73
2023/10/17 04:14:20;;;;;;;;;6.33;4.33;;;;;6.11;100.00;100858.31;5091403;27;45775;-74
2023/10/17 04:16:48;;;;;;;;;8.33;6.67;;;;;6.09;100.00;100859.50;5090243;27;47151;-74
2023/10/17 04:19:17;;;;;;;;;16.00;15.00;;;;;6.06;100.00;100866.16;5084056;27;45644;-71
2023/10/17 04:25:19;;;;;;;;;31.75;22.00;;;;;6.03;100.00;100861.06;5092600;27;45771;-71
2023/10/17 04:29:44;;;;;;;;;5.67;4.67;;;;;6.02;100.00;100886.63;5073744;27;45380;-72
2023/10/17 04:32:13;;;;;;;;;6.00;6.00;;;;;6.01;100.00;100884.91;5083670;27;45330;-71
2023/10/17 04:34:45;;;;;;;;;7.00;5.00;;;;;5.99;100.00;100878.78;5082245;27;45781;-73
2023/10/17 04:37:24;;;;;;;;;14.33;8.33;;;;;6.02;100.00;100878.44;5084704;27;46608;-72
2023/10/17 04:39:50;;;;;;;;;10.00;7.67;;;;;6.04;100.00;100881.81;5082972;27;45671;-72
2023/10/17 04:42:42;;;;;;;;;8.33;8.33;;;;;6.01;100.00;100883.03;5085212;27;45838;-72
2023/10/17 04:45:14;;;;;;;;;7.67;6.00;;;;;6.02;100.00;100875.72;5085187;27;45817;-73
2023/10/17 04:47:43;;;;;;;;;10.67;10.00;;;;;5.98;100.00;100864.31;5083603;27;48309;-70
2023/10/17 04:50:11;;;;;;;;;11.67;6.00;;;;;5.95;100.00;100855.63;5089282;27;45700;-72
2023/10/17 04:52:40;;;;;;;;;14.00;7.00;;;;;6.02;100.00;100851.22;5076340;27;45912;-70
2023/10/17 04:55:18;;;;;;;;;12.33;7.33;;;;;6.00;100.00;100851.41;5082694;27;45471;-70
2023/10/17 05:03:50;;;;;;;;;6.33;5.00;;;;;5.94;100.00;100838.47;5082828;27;45831;-74
2023/10/17 05:06:18;;;;;;;;;4.33;3.67;;;;;5.89;100.00;100840.84;5095499;27;45763;-76
2023/10/17 06:17:21;;;;;;;;;14.75;12.75;;;;;5.77;100.00;100870.31;5077611;27;45637;-72
2023/10/17 06:19:47;;;;;;;;;17.00;17.00;;;;;5.80;100.00;100866.41;5076000;27;45419;-75
2023/10/17 06:32:48;;;;;;;;;12.00;10.67;;;;;5.94;100.00;100862.09;5084612;27;45472;-71
2023/10/17 06:35:13;;;;;;;;;6.00;6.00;;;;;5.96;100.00;100865.50;5089988;27;45364;-72
2023/10/17 06:37:42;;;;;;;;;7.00;7.00;;;;;5.98;100.00;100868.94;5086593;27;45534;-73
2023/10/17 06:40:15;;;;;;;;;15.67;11.00;;;;;6.03;100.00;100871.13;5081854;27;45699;-71
2023/10/17 06:42:59;;;;;;;;;12.00;9.00;;;;;6.09;100.00;100879.44;5089634;27;45519;-74
2023/10/17 06:45:24;;;;;;;;;10.33;7.33;;;;;6.16;100.00;100877.69;5083191;27;45895;-71
2023/10/17 06:47:50;;;;;;;;;11.67;9.00;;;;;6.21;100.00;100879.03;5071123;27;45651;-75
2023/10/17 06:55:42;;;;;;;;;13.00;9.00;;;;;6.32;100.00;100874.06;5082874;27;45831;-70
2023/10/17 06:58:09;;;;;;;;;10.67;9.00;;;;;6.37;100.00;100868.06;5072212;27;45605;-74
2023/10/17 07:00:49;;;;;;;;;11.00;7.67;;;;;6.42;100.00;100876.56;5083449;27;45796;-72
2023/10/17 07:03:16;;;;;;;;;11.33;8.67;;;;;6.47;100.00;100885.03;5084098;27;45759;-72
2023/10/17 07:05:49;;;;;;;;;12.33;10.67;;;;;6.48;100.00;100870.41;5090232;27;45373;-72
2023/10/17 07:08:19;;;;;;;;;11.00;11.00;;;;;6.56;100.00;100864.06;5079140;27;45771;-69
2023/10/17 07:14:22;;;;;;;;;7.33;7.33;;;;;6.82;100.00;100866.41;5083934;27;45755;-73
2023/10/17 07:16:42;;;;;;;;;8.67;6.00;;;;;6.95;100.00;100863.09;5087814;27;46267;-75
2023/10/17 07:24:33;;;;;;;;;17.00;13.33;;;;;7.12;100.00;100869.25;5082455;27;45321;-74
2023/10/17 07:27:01;;;;;;;;;16.00;13.67;;;;;7.14;100.00;100864.50;5078602;27;46784;-72
2023/10/17 07:29:30;;;;;;;;;13.00;9.33;;;;;7.23;100.00;100868.84;5089579;27;45569;-73
2023/10/17 07:32:00;;;;;;;;;11.67;9.67;;;;;7.33;100.00;100851.34;5087806;27;45416;-72
2023/10/17 07:34:33;;;;;;;;;5.33;3.33;;;;;7.42;100.00;100852.97;5092369;27;46264;-69
2023/10/17 07:37:12;;;;;;;;;13.33;12.67;;;;;7.36;100.00;100861.91;5088687;27;47270;-73
2023/10/17 07:39:37;;;;;;;;;14.33;12.67;;;;;7.42;100.00;100862.03;5089919;27;45422;-73
2023/10/17 07:42:04;;;;;;;;;13.00;12.00;;;;;7.49;100.00;100861.28;5082283;27;45973;-71
2023/10/17 07:44:34;;;;;;;;;13.00;11.67;;;;;7.46;100.00;100873.41;5091970;27;45905;-72
2023/10/17 07:49:41;;;;;;;;;15.67;11.33;;;;;7.63;100.00;100865.88;5090293;27;45890;-73
2023/10/17 07:52:17;;;;;;;;;12.00;11.33;;;;;7.69;100.00;100858.84;5081375;27;45482;-74
2023/10/17 07:54:55;;;;;;;;;14.00;12.67;;;;;7.69;100.00;100851.47;5086347;27;45920;-73
2023/10/17 07:57:27;;;;;;;;;12.67;11.00;;;;;7.81;100.00;100867.41;5085397;27;45594;-72
2023/10/17 07:59:57;;;;;;;;;14.67;11.67;;;;;7.92;100.00;100862.34;5089567;27;45631;-77
2023/10/17 08:02:23;;;;;;;;;12.67;10.33;;;;;7.95;100.00;100851.03;5079546;27;45388;-74
2023/10/17 08:04:51;;;;;;;;;15.00;12.67;;;;;7.95;100.00;100855.66;5086350;27;45974;-72
2023/10/17 08:07:20;;;;;;;;;13.67;10.00;;;;;8.03;100.00;100855.53;5091887;27;46385;-71
2023/10/17 08:09:51;;;;;;;;;14.67;14.67;;;;;8.19;100.00;100867.28;5089123;27;45822;-78
2023/10/17 08:12:22;;;;;;;;;12.00;9.00;;;;;8.27;100.00;100859.00;5071614;27;45837;-78
2023/10/17 08:14:57;;;;;;;;;15.00;12.33;;;;;8.38;100.00;100852.19;5093184;27;45430;-77
2023/10/17 08:17:23;;;;;;;;;17.33;13.00;;;;;8.46;100.00;100857.59;5093395;27;46227;-75
2023/10/17 08:22:20;;;;;;;;;20.67;15.00;;;;;8.57;100.00;100854.34;5085093;27;45815;-79
2023/10/17 08:24:51;;;;;;;;;11.33;10.00;;;;;8.68;100.00;100842.03;5087269;27;45828;-76
2023/10/17 08:27:19;;;;;;;;;10.33;10.33;;;;;8.88;100.00;100849.59;5087486;27;46601;-75
2023/10/17 08:29:48;;;;;;;;;13.67;9.00;;;;;8.97;100.00;100852.03;5087498;27;45765;-72
2023/10/17 08:35:20;;;;;;;;;11.67;10.67;;;;;9.13;100.00;100847.31;5097354;27;45984;-73
2023/10/17 08:37:47;;;;;;;;;12.67;10.00;;;;;9.29;100.00;100852.50;5081675;27;45449;-72
2023/10/17 08:40:29;;;;;;;;;11.00;11.00;;;;;9.43;100.00;100845.28;5091467;27;45442;-74
2023/10/17 08:42:56;;;;;;;;;12.00;12.00;;;;;9.57;100.00;100854.41;5092684;27;45468;-72
2023/10/17 08:45:26;;;;;;;;;12.00;12.00;;;;;9.66;100.00;100855.13;5091683;27;45749;-73
2023/10/17 08:47:57;;;;;;;;;14.33;11.67;;;;;9.72;100.00;100843.34;5074959;27;46914;-75
2023/10/17 08:50:24;;;;;;;;;12.33;12.00;;;;;9.67;100.00;100843.97;5090193;27;45703;-76
2023/10/17 08:52:51;;;;;;;;;11.00;10.00;;;;;9.76;100.00;100830.97;5092678;27;45949;-78
2023/10/17 08:55:17;;;;;;;;;14.33;10.00;;;;;9.71;100.00;100827.97;5089883;27;45855;-74
2023/10/17 08:57:42;;;;;;;;;13.33;12.00;;;;;9.78;100.00;100833.50;5075481;27;45803;-77
2023/10/17 09:02:35;;;;;;;;;12.67;9.67;;;;;10.24;100.00;100846.59;5091981;27;45551;-79
2023/10/17 09:05:11;;;;;;;;;12.00;11.00;;;;;11.27;100.00;100837.31;5092954;27;45500;-78
2023/10/17 09:07:43;;;;;;;;;14.33;13.33;;;;;12.52;100.00;100831.75;5093041;27;45512;-79
2023/10/17 09:10:31;;;;;;;;;12.33;12.33;;;;;13.49;100.00;100825.16;5079476;27;45771;-78
2023/10/17 09:16:08;;;;;;;;;15.00;10.00;;;;;14.52;100.00;100822.69;5091126;27;45573;-78
2023/10/17 09:18:40;;;;;;;;;12.33;8.67;;;;;14.84;100.00;100819.72;5082871;27;47299;-78
2023/10/17 09:21:06;;;;;;;;;14.33;12.67;;;;;15.46;100.00;100812.97;5092985;27;45652;-79
2023/10/17 09:23:31;;;;;;;;;8.00;8.00;;;;;16.04;100.00;100816.78;5092001;27;45410;-77
2023/10/17 09:26:00;;;;;;;;;11.00;11.00;;;;;16.44;100.00;100806.81;5082767;27;46037;-79
2023/10/17 09:28:28;;;;;;;;;13.00;9.67;;;;;16.73;99.02;100822.31;5089504;27;45753;-77
2023/10/17 09:31:08;;;;;;;;;10.00;9.67;;;;;17.10;97.83;100819.16;5080129;27;45715;-75
2023/10/17 09:33:44;;;;;;;;;10.00;9.00;;;;;17.35;95.24;100817.06;5089295;27;45745;-70
2023/10/17 09:36:17;;;;;;;;;10.67;9.67;;;;;17.67;92.39;100808.97;5090760;27;45692;-74
2023/10/17 09:38:46;;;;;;;;;14.00;13.67;;;;;18.07;91.67;100813.44;5076160;27;45590;-74
2023/10/17 09:41:17;;;;;;;;;11.00;11.00;;;;;18.39;88.32;100804.38;5090445;27;45454;-73
2023/10/17 09:43:43;;;;;;;;;9.33;8.00;;;;;18.68;85.87;100790.25;5080970;27;45470;-72
2023/10/17 09:46:10;;;;;;;;;11.00;10.00;;;;;19.05;82.74;100820.09;5080789;27;45722;-73
2023/10/17 09:48:41;;;;;;;;;14.00;14.00;;;;;19.04;82.30;100793.38;5088762;27;45727;-71
2023/10/17 09:51:10;;;;;;;;;12.33;11.33;;;;;19.38;80.59;100804.25;5089063;27;45993;-70
2023/10/17 09:53:39;;;;;;;;;12.67;12.00;;;;;19.58;78.89;100801.63;5100206;27;45407;-70
2023/10/17 09:56:09;;;;;;;;;9.33;9.33;;;;;19.23;78.15;100789.09;5081842;27;47205;-72
2023/10/17 09:58:38;;;;;;;;;10.00;9.67;;;;;19.34;77.79;100800.31;5090383;27;45740;-72
2023/10/17 10:01:13;;;;;;;;;13.00;11.33;;;;;19.32;76.52;100805.31;5075246;27;45421;-74
2023/10/17 10:03:40;;;;;;;;;11.67;11.33;;;;;19.43;76.13;100800.66;5082096;27;45422;-73
2023/10/17 10:06:25;;;;;;;;;7.33;6.00;;;;;19.44;76.02;100792.03;5087682;27;45444;-71
2023/10/17 10:09:14;;;;;;;;;11.33;9.67;;;;;19.46;75.78;100800.97;5076739;27;46253;-78
2023/10/17 10:11:48;;;;;;;;;11.00;9.00;;;;;19.61;74.38;100791.03;5087662;27;45889;-71
2023/10/17 10:14:27;;;;;;;;;10.33;10.33;;;;;19.41;74.52;100795.38;5081180;27;45411;-73
2023/10/17 10:17:02;;;;;;;;;14.33;11.00;;;;;19.13;74.62;100805.72;5080075;27;45486;-72
2023/10/17 10:19:40;;;;;;;;;14.33;12.00;;;;;18.96;75.31;100791.13;5081888;27;45411;-69
2023/10/17 10:22:07;;;;;;;;;10.33;10.33;;;;;19.25;75.27;100799.13;5085538;27;45777;-72
2023/10/17 10:24:36;;;;;;;;;13.33;10.33;;;;;19.35;74.25;100800.03;5082578;27;45560;-72
2023/10/17 10:29:40;;;;;;;;;11.67;9.33;;;;;19.23;74.94;100786.31;5082537;27;46055;-69
2023/10/17 10:32:06;;;;;;;;;8.00;8.00;;;;;19.16;74.36;100791.28;5082619;27;45632;-71
2023/10/17 10:34:35;;;;;;;;;11.33;9.33;;;;;18.95;75.22;100783.88;5090219;27;45577;-74
2023/10/17 10:37:01;;;;;;;;;11.67;11.67;;;;;18.92;75.56;100778.84;5085594;27;46506;-74
2023/10/17 10:39:26;;;;;;;;;15.00;11.67;;;;;18.86;75.19;100778.81;5075551;27;45775;-71
2023/10/17 10:42:06;;;;;;;;;4.67;4.67;;;;;18.52;75.72;100776.19;5086246;27;45740;-72
2023/10/17 10:44:41;;;;;;;;;12.33;7.00;;;;;18.02;76.78;100777.28;5079647;27;45383;-72
2023/10/17 10:47:07;;;;;;;;;12.33;10.33;;;;;17.80;77.85;100775.31;5086924;27;45688;-69
2023/10/17 10:49:33;;;;;;;;;14.67;12.67;;;;;17.77;78.95;100758.31;5084904;27;45512;-71
2023/10/17 10:51:59;;;;;;;;;12.00;12.00;;;;;17.45;79.44;100751.53;5085874;27;45814;-71
2023/10/17 10:54:27;;;;;;;;;12.00;11.33;;;;;17.43;80.60;100773.13;5078010;27;45468;-69
2023/10/17 10:56:53;;;;;;;;;17.00;12.00;;;;;17.12;81.19;100755.16;5084788;27;45980;-70
2023/10/17 10:59:22;;;;;;;;;14.00;13.00;;;;;16.85;82.86;100774.34;5079547;27;45749;-71
2023/10/17 11:01:48;;;;;;;;;12.33;11.00;;;;;16.17;84.16;100775.03;5091875;27;45806;-71
2023/10/17 11:04:14;;;;;;;;;12.67;8.67;;;;;15.97;85.84;100769.91;5087142;27;47026;-70
2023/10/17 11:06:40;;;;;;;;;16.33;14.00;;;;;15.73;87.05;100757.19;5083698;27;45576;-70
2023/10/17 11:09:09;;;;;;;;;10.33;10.33;;;;;15.54;88.82;100754.56;5088319;27;46846;-69
2023/10/17 11:11:49;;;;;;;;;9.67;8.67;;;;;15.35;90.69;100760.22;5082229;27;45853;-70
2023/10/17 11:14:19;;;;;;;;;12.00;11.33;;;;;15.33;91.70;100759.63;5089981;27;45790;-71
2023/10/17 11:16:50;;;;;;;;;12.33;11.00;;;;;15.40;92.46;100756.72;5080456;27;45729;-70
2023/10/17 11:19:22;;;;;;;;;7.00;7.00;;;;;15.31;93.12;100756.28;5089632;27;45497;-69
2023/10/17 11:21:57;;;;;;;;;10.33;7.33;;;;;15.27;93.47;100749.53;5076752;27;46149;-72
2023/10/17 11:24:25;;;;;;;;;10.67;8.33;;;;;15.17;94.90;100746.53;5083604;27;45541;-69
2023/10/17 11:26:52;;;;;;;;;9.67;9.00;;;;;15.20;95.74;100745.22;5082075;27;46832;-72
2023/10/17 11:29:18;;;;;;;;;9.00;9.00;;;;;15.29;96.34;100744.59;5085427;27;45818;-71
2023/10/17 11:31:44;;;;;;;;;10.50;8.50;;;;;15.33;96.41;100731.16;5081338;27;45676;-69
2023/10/17 11:34:16;;;;;;;;;12.33;12.00;;;;;15.23;97.11;100719.88;5092591;27;45470;-73
2023/10/17 11:36:54;;;;;;;;;10.00;9.00;;;;;15.29;97.67;100718.91;5093682;27;45706;-70
2023/10/17 11:39:20;;;;;;;;;10.67;10.33;;;;;15.21;98.36;100717.34;5092984;27;46161;-72
2023/10/17 11:41:53;;;;;;;;;17.00;14.00;;;;;15.14;98.99;100711.09;5086609;27;45396;-72
2023/10/17 11:44:27;;;;;;;;;11.33;9.33;;;;;15.09;99.37;100708.19;5087911;27;45910;-71
2023/10/17 11:47:02;;;;;;;;;14.00;11.67;;;;;15.06;99.75;100708.69;5086231;27;45653;-70
2023/10/17 11:49:38;;;;;;;;;9.67;8.00;;;;;15.00;100.00;100697.53;5090328;27;45527;-70
2023/10/17 11:52:15;;;;;;;;;9.33;9.00;;;;;15.00;100.00;100704.97;5085918;27;45680;-70
2023/10/17 11:54:52;;;;;;;;;7.33;5.00;;;;;14.99;100.00;100681.19;5084241;27;45596;-70
2023/10/17 11:57:23;;;;;;;;;11.33;8.67;;;;;15.02;100.00;100688.16;5083634;27;46715;-70
2023/10/17 12:00:19;;;;;;;;;5.33;5.33;;;;;15.03;100.00;100676.00;5088417;27;46382;-69
2023/10/17 12:02:48;;;;;;;;;10.67;9.67;;;;;15.09;100.00;100678.66;5088494;27;45874;-69
2023/10/17 12:05:18;;;;;;;;;8.00;8.00;;;;;15.20;100.00;100674.22;5088577;27;45428;-69
2023/10/17 12:07:50;;;;;;;;;8.00;8.00;;;;;15.33;100.00;100676.72;5089839;27;46151;-69
2023/10/17 12:10:16;;;;;;;;;12.33;10.00;;;;;15.40;100.00;100667.47;5083989;27;45670;-69
2023/10/17 12:12:42;;;;;;;;;8.67;8.67;;;;;15.46;100.00;100655.44;5081535;27;45802;-70
2023/10/17 12:15:13;;;;;;;;;8.67;7.33;;;;;15.63;100.00;100653.59;5080855;27;45978;-70
2023/10/17 12:17:38;;;;;;;;;9.67;8.33;;;;;15.70;100.00;100653.44;5088419;27;46348;-69
2023/10/17 12:20:11;;;;;;;;;7.00;7.00;;;;;15.73;100.00;100652.94;5090343;27;47216;-69
2023/10/17 12:22:37;;;;;;;;;14.67;8.00;;;;;15.84;100.00;100654.03;5079738;27;45754;-68
2023/10/17 12:25:04;;;;;;;;;5.67;5.33;;;;;15.91;100.00;100648.34;5092970;27;45662;-70
2023/10/17 12:27:30;;;;;;;;;9.67;6.67;;;;;15.91;100.00;100640.06;5084573;27;45547;-71
2023/10/17 12:29:56;;;;;;;;;8.33;7.00;;;;;15.95;100.00;100633.78;5100899;27;46989;-69
2023/10/17 12:32:22;;;;;;;;;8.00;8.00;;;;;15.97;100.00;100639.06;5093170;27;45987;-69
2023/10/17 12:34:49;;;;;;;;;8.33;8.33;;;;;16.03;100.00;100630.63;5088177;27;45782;-70
2023/10/17 12:37:17;;;;;;;;;12.33;9.00;;;;;16.17;100.00;100624.78;5083754;27;45641;-72
2023/10/17 12:39:43;;;;;;;;;5.67;5.67;;;;;16.17;100.00;100622.84;5083425;27;45845;-70
2023/10/17 12:42:10;;;;;;;;;8.67;7.33;;;;;16.26;100.00;100623.28;5084011;27;46270;-71
2023/10/17 12:44:36;;;;;;;;;9.67;7.67;;;;;16.34;100.00;100622.03;5089801;27;45426;-68
2023/10/17 12:47:02;;;;;;;;;8.67;5.33;;;;;16.44;100.00;100607.50;5081597;27;45519;-69
2023/10/17 12:49:28;;;;;;;;;8.67;7.67;;;;;16.63;100.00;100610.88;5084002;27;46739;-69
2023/10/17 12:51:53;;;;;;;;;7.00;7.00;;;;;16.62;100.00;100604.50;5092636;27;45382;-68
2023/10/17 12:54:19;;;;;;;;;8.67;6.00;;;;;16.73;100.00;100611.84;5089766;27;45847;-67
2023/10/17 12:56:45;;;;;;;;;10.00;7.33;;;;;16.80;100.00;100605.31;5090123;27;45905;-69
2023/10/17 12:59:13;;;;;;;;;9.33;8.67;;;;;16.88;100.00;100600.19;5072323;27;46675;-67
2023/10/17 13:01:43;;;;;;;;;8.67;8.67;;;;;16.89;100.00;100612.13;5090737;27;45787;-68
2023/10/17 13:04:09;;;;;;;;;7.33;7.00;;;;;16.97;100.00;100600.59;5083792;27;45737;-68
2023/10/17 13:06:38;;;;;;;;;6.33;5.33;;;;;17.01;100.00;100596.25;5084654;27;46202;-68
2023/10/17 13:09:04;;;;;;;;;10.00;7.00;;;;;17.13;100.00;100589.75;5085119;27;47904;-69
2023/10/17 13:11:30;;;;;;;;;7.67;7.00;;;;;17.26;100.00;100597.66;5087090;27;45813;-70
2023/10/17 13:13:57;;;;;;;;;6.00;5.33;;;;;17.36;100.00;100591.44;5082795;27;45453;-68
2023/10/17 13:16:26;;;;;;;;;8.67;6.00;;;;;17.41;100.00;100586.78;5085750;27;46866;-70
2023/10/17 13:19:06;;;;;;;;;9.33;7.00;;;;;17.38;100.00;100583.69;5091382;27;45848;-69
2023/10/17 13:21:36;;;;;;;;;7.33;7.33;;;;;17.40;100.00;100579.56;5085733;27;45940;-71
2023/10/17 13:24:01;;;;;;;;;6.67;6.33;;;;;17.43;100.00;100573.50;5092174;27;45428;-68
2023/10/17 13:26:31;;;;;;;;;7.00;4.67;;;;;17.28;100.00;100581.63;5091909;27;45798;-69
2023/10/17 13:28:57;;;;;;;;;8.67;6.00;;;;;17.18;100.00;100559.31;5084850;27;46449;-69
2023/10/17 13:31:23;;;;;;;;;7.33;4.00;;;;;17.12;100.00;100572.28;5085414;27;46019;-69
2023/10/17 13:33:55;;;;;;;;;9.33;8.67;;;;;17.03;100.00;100571.88;5079881;27;45484;-70
2023/10/17 13:36:21;;;;;;;;;7.33;5.00;;;;;17.00;100.00;100582.63;5078937;27;45599;-68
2023/10/17 13:38:48;;;;;;;;;5.33;5.33;;;;;16.92;100.00;100565.38;5085252;27;46238;-69
2023/10/17 13:41:17;;;;;;;;;7.33;6.00;;;;;16.89;100.00;100573.34;5083307;27;45594;-69
2023/10/17 13:43:43;;;;;;;;;9.67;7.00;;;;;16.90;100.00;100564.78;5084173;27;45400;-70